createdAt,value
2023-10-03T00:00:37.818Z,21.52
2023-10-03T00:03:04.924Z,19.50
2023-10-03T00:05:31.799Z,19.15
2023-10-03T00:08:01.110Z,21.38
2023-10-03T00:10:28.159Z,18.17
2023-10-03T00:12:55.230Z,20.20
2023-10-03T00:15:24.344Z,19.13
2023-10-03T00:17:51.463Z,20.13
2023-10-03T00:20:18.550Z,20.27
2023-10-03T00:22:47.800Z,19.77
2023-10-03T00:25:15.796Z,19.15
2023-10-03T00:27:42.138Z,21.17
2023-10-03T00:30:08.976Z,19.50
2023-10-03T00:32:35.450Z,21.65
2023-10-03T00:35:01.841Z,21.77
2023-10-03T00:37:28.284Z,18.80
2023-10-03T00:39:54.614Z,20.27
2023-10-03T00:42:20.950Z,18.52
2023-10-03T00:44:47.347Z,20.20
2023-10-03T00:47:13.792Z,19.63
2023-10-03T00:49:40.552Z,18.13
2023-10-03T00:52:06.981Z,24.08
2023-10-03T00:54:33.314Z,20.30
2023-10-03T00:56:59.741Z,24.23
2023-10-03T00:59:26.084Z,22.83
2023-10-03T01:01:52.427Z,21.58
2023-10-03T01:04:18.933Z,19.13
2023-10-03T01:06:45.381Z,21.08
2023-10-03T01:09:11.813Z,23.63
2023-10-03T01:11:38.284Z,22.77
2023-10-03T01:14:04.663Z,18.63
2023-10-03T01:16:31.220Z,16.13
2023-10-03T01:18:58.340Z,21.13
2023-10-03T01:21:24.662Z,21.30
2023-10-03T01:23:51.022Z,20.45
2023-10-03T01:26:17.523Z,21.17
2023-10-03T01:28:43.855Z,19.75
2023-10-03T01:31:10.346Z,24.73
2023-10-03T01:33:36.905Z,19.77
2023-10-03T01:36:03.662Z,23.00
2023-10-03T01:38:30.137Z,21.02
2023-10-03T01:40:58.273Z,18.20
2023-10-03T01:43:25.403Z,21.48
2023-10-03T01:45:51.809Z,19.85
2023-10-03T01:48:18.444Z,23.45
2023-10-03T01:50:44.996Z,19.50
2023-10-03T01:53:12.127Z,20.15
2023-10-03T01:55:39.125Z,20.67
2023-10-03T01:58:06.049Z,21.60
2023-10-03T02:00:32.704Z,21.95
2023-10-03T02:03:00.951Z,20.02
2023-10-03T02:05:27.466Z,22.42
2023-10-03T02:07:55.112Z,22.27
2023-10-03T02:10:21.872Z,23.20
2023-10-03T02:12:48.332Z,17.70
2023-10-03T02:15:14.695Z,18.88
2023-10-03T02:17:41.278Z,21.35
2023-10-03T02:20:08.307Z,19.00
2023-10-03T02:22:34.647Z,19.90
2023-10-03T02:25:02.643Z,21.48
2023-10-03T02:27:29.027Z,19.73
2023-10-03T02:29:55.380Z,21.67
2023-10-03T02:32:21.853Z,21.55
2023-10-03T02:34:48.264Z,21.42
2023-10-03T02:37:14.620Z,23.63
2023-10-03T02:39:41.072Z,19.42
2023-10-03T02:42:07.489Z,23.40
2023-10-03T02:44:33.854Z,24.90
2023-10-03T02:47:00.283Z,25.52
2023-10-03T02:49:26.593Z,23.42
2023-10-03T02:51:52.933Z,22.48
2023-10-03T02:54:19.363Z,25.35
2023-10-03T02:56:45.751Z,20.45
2023-10-03T02:59:12.155Z,23.60
2023-10-03T03:01:38.594Z,23.63
2023-10-03T03:04:05.295Z,23.48
2023-10-03T03:06:31.853Z,23.65
2023-10-03T03:08:58.289Z,24.52
2023-10-03T03:11:24.890Z,22.52
2023-10-03T03:13:51.265Z,27.30
2023-10-03T03:16:17.654Z,22.00
2023-10-03T03:18:45.127Z,26.25
2023-10-03T03:21:16.914Z,22.90
2023-10-03T03:23:45.482Z,22.63
2023-10-03T03:26:12.664Z,25.25
2023-10-03T03:28:43.123Z,24.23
2023-10-03T03:31:09.742Z,24.98
2023-10-03T03:33:36.256Z,26.83
2023-10-03T03:36:02.876Z,24.35
2023-10-03T03:38:29.243Z,22.15
2023-10-03T03:40:59.855Z,23.60
2023-10-03T03:43:26.340Z,23.67
2023-10-03T03:45:52.940Z,21.95
2023-10-03T03:48:19.609Z,24.40
2023-10-03T03:50:46.176Z,22.45
2023-10-03T03:53:12.541Z,20.42
2023-10-03T03:55:39.047Z,28.60
2023-10-03T03:58:05.969Z,24.38
2023-10-03T04:00:32.297Z,24.05
2023-10-03T04:03:01.767Z,24.08
2023-10-03T04:05:28.412Z,25.88
2023-10-03T04:07:54.738Z,23.77
2023-10-03T04:10:21.193Z,24.40
2023-10-03T04:12:47.554Z,25.35
2023-10-03T04:15:14.226Z,25.35
2023-10-03T04:17:41.430Z,21.27
2023-10-03T04:20:11.747Z,22.90
2023-10-03T04:22:38.277Z,22.67
2023-10-03T04:25:05.230Z,29.25
2023-10-03T04:27:31.574Z,23.25
2023-10-03T04:29:57.949Z,24.17
2023-10-03T04:32:24.423Z,27.17
2023-10-03T04:34:50.834Z,23.33
2023-10-03T04:37:17.320Z,25.73
2023-10-03T04:39:43.778Z,24.98
2023-10-03T04:42:10.262Z,23.80
2023-10-03T04:44:36.821Z,26.25
2023-10-03T04:47:04.756Z,27.73
2023-10-03T04:49:31.318Z,22.85
2023-10-03T04:51:57.710Z,23.70
2023-10-03T04:54:24.042Z,25.52
2023-10-03T04:56:50.476Z,20.95
2023-10-03T04:59:16.943Z,26.05
2023-10-03T05:01:43.449Z,25.83
2023-10-03T05:04:09.965Z,26.48
2023-10-03T05:06:36.547Z,22.92
2023-10-03T05:09:03.271Z,23.40
2023-10-03T05:11:29.752Z,28.63
2023-10-03T05:13:56.226Z,29.17
2023-10-03T05:16:22.601Z,28.92
2023-10-03T05:18:48.993Z,24.52
2023-10-03T05:21:15.453Z,25.58
2023-10-03T05:23:41.817Z,27.67
2023-10-03T05:26:08.164Z,25.38
2023-10-03T05:28:37.429Z,26.77
2023-10-03T05:31:04.162Z,24.52
2023-10-03T05:33:30.592Z,24.70
2023-10-03T05:35:57.194Z,23.17
2023-10-03T05:38:23.728Z,27.15
2023-10-03T05:40:50.104Z,28.58
2023-10-03T05:43:18.734Z,25.95
2023-10-03T05:45:45.545Z,26.50
2023-10-03T05:48:12.092Z,27.05
2023-10-03T05:50:38.588Z,27.40
2023-10-03T05:53:05.056Z,24.13
2023-10-03T05:55:31.398Z,23.58
2023-10-03T05:57:57.788Z,26.30
2023-10-03T06:00:24.568Z,27.33
2023-10-03T06:02:51.149Z,26.42
2023-10-03T06:05:17.701Z,27.75
2023-10-03T06:07:45.496Z,25.08
2023-10-03T06:10:12.336Z,25.35
2023-10-03T06:12:38.998Z,26.95
2023-10-03T06:15:06.271Z,26.38
2023-10-03T06:17:33.419Z,27.92
2023-10-03T06:19:59.874Z,27.25
2023-10-03T06:22:26.243Z,26.25
2023-10-03T06:24:52.656Z,29.02
2023-10-03T06:27:18.979Z,29.13
2023-10-03T06:29:45.416Z,28.63
2023-10-03T06:32:11.827Z,31.17
2023-10-03T06:34:38.193Z,27.67
2023-10-03T06:37:04.563Z,25.65
2023-10-03T06:39:31.105Z,26.83
2023-10-03T06:41:57.589Z,27.85
2023-10-03T06:44:24.242Z,25.38
2023-10-03T06:46:50.878Z,28.95
2023-10-03T06:49:17.279Z,27.92
2023-10-03T06:51:46.302Z,30.15
2023-10-03T06:54:12.649Z,28.48
2023-10-03T06:56:39.127Z,30.38
2023-10-03T06:59:05.646Z,28.83
2023-10-03T07:01:31.989Z,28.27
2023-10-03T07:03:58.429Z,25.20
2023-10-03T07:06:25.342Z,28.75
2023-10-03T07:08:52.013Z,27.08
2023-10-03T07:11:18.480Z,29.17
2023-10-03T07:13:44.974Z,28.83
2023-10-03T07:16:11.540Z,27.85
2023-10-03T07:18:39.097Z,27.25
2023-10-03T07:21:05.586Z,28.38
2023-10-03T07:23:32.358Z,28.70
2023-10-03T07:25:58.756Z,27.10
2023-10-03T07:28:25.187Z,25.40
2023-10-03T07:30:51.777Z,28.27
2023-10-03T07:33:18.303Z,26.77
2023-10-03T07:35:44.772Z,27.42
2023-10-03T07:38:11.635Z,30.73
2023-10-03T07:40:41.861Z,24.45
2023-10-03T07:43:09.171Z,25.83
2023-10-03T07:48:01.976Z,26.08
2023-10-03T07:50:28.401Z,28.90
2023-10-03T07:52:55.212Z,23.65
2023-10-03T07:55:21.732Z,28.38
2023-10-03T07:57:48.149Z,23.98
2023-10-03T08:00:14.829Z,26.65
2023-10-03T08:02:41.372Z,25.77
2023-10-03T08:05:08.425Z,25.70
2023-10-03T08:07:34.808Z,24.05
2023-10-03T08:10:01.256Z,24.95
2023-10-03T08:12:27.611Z,22.95
2023-10-03T08:14:54.297Z,23.25
2023-10-03T08:17:21.091Z,24.15
2023-10-03T08:19:50.307Z,23.58
2023-10-03T08:22:16.926Z,25.38
2023-10-03T08:24:43.266Z,25.25
2023-10-03T08:27:09.632Z,24.83
2023-10-03T08:29:36.099Z,20.88
2023-10-03T08:32:02.489Z,22.75
2023-10-03T08:34:30.728Z,20.52
2023-10-03T08:36:58.612Z,19.15
2023-10-03T08:39:25.305Z,23.45
2023-10-03T08:42:07.069Z,18.63
2023-10-03T08:44:37.346Z,20.70
2023-10-03T08:47:07.838Z,19.10
2023-10-03T08:49:38.993Z,20.02
2023-10-03T08:52:08.777Z,20.05
2023-10-03T08:54:37.824Z,20.42
2023-10-03T08:57:05.422Z,17.30
2023-10-03T08:59:32.762Z,18.40
2023-10-03T09:02:08.040Z,19.15
2023-10-03T09:04:35.147Z,18.88
2023-10-03T09:07:01.530Z,17.63
2023-10-03T09:09:28.598Z,18.38
2023-10-03T09:14:26.890Z,18.98
2023-10-03T09:16:53.395Z,14.25
2023-10-03T09:19:20.262Z,14.65
2023-10-03T09:21:46.712Z,16.23
2023-10-03T09:24:13.188Z,16.27
2023-10-03T09:26:44.769Z,15.27
2023-10-03T09:29:11.187Z,13.30
2023-10-03T09:31:37.651Z,14.68
2023-10-03T09:34:04.163Z,14.00
2023-10-03T09:36:31.383Z,14.13
2023-10-03T09:38:57.814Z,14.27
2023-10-03T09:41:25.364Z,11.95
2023-10-03T09:43:53.354Z,10.88
2023-10-03T09:46:20.019Z,10.65
2023-10-03T09:48:46.455Z,11.68
2023-10-03T09:51:13.303Z,8.98
2023-10-03T09:53:41.179Z,9.10
2023-10-03T09:56:07.816Z,9.15
2023-10-03T09:58:34.414Z,9.07
2023-10-03T10:01:01.296Z,8.88
2023-10-03T10:06:04.570Z,9.80
2023-10-03T10:09:12.597Z,7.80
2023-10-03T10:12:12.284Z,7.40
2023-10-03T10:15:00.828Z,10.05
2023-10-03T10:17:47.648Z,7.68
2023-10-03T10:20:17.875Z,8.18
2023-10-03T10:22:59.241Z,8.50
2023-10-03T10:25:29.269Z,7.65
2023-10-03T10:28:07.603Z,6.82
2023-10-03T10:30:54.739Z,7.43
2023-10-03T10:33:24.847Z,8.88
2023-10-03T10:36:01.180Z,7.70
2023-10-03T10:38:33.658Z,6.90
2023-10-03T10:41:12.290Z,6.80
2023-10-03T10:44:13.671Z,8.07
2023-10-03T10:46:43.737Z,7.70
2023-10-03T10:49:32.656Z,9.85
2023-10-03T10:51:59.526Z,6.90
2023-10-03T10:57:06.107Z,9.15
2023-10-03T10:59:34.198Z,6.97
2023-10-03T11:02:00.783Z,7.47
2023-10-03T11:04:28.695Z,6.88
2023-10-03T11:06:55.236Z,6.68
2023-10-03T11:09:22.516Z,5.95
2023-10-03T11:11:48.887Z,7.97
2023-10-03T11:14:31.133Z,8.40
2023-10-03T11:16:57.860Z,6.90
2023-10-03T11:19:24.440Z,6.18
2023-10-03T11:21:51.302Z,7.35
2023-10-03T11:26:47.075Z,7.90
2023-10-03T11:29:14.100Z,8.57
2023-10-03T11:31:40.632Z,6.93
2023-10-03T11:34:07.818Z,8.13
2023-10-03T11:36:44.944Z,7.68
2023-10-03T11:39:12.638Z,21.92
2023-10-03T11:41:39.167Z,10.68
2023-10-03T11:44:16.983Z,8.98
2023-10-03T11:46:43.384Z,7.82
2023-10-03T11:49:09.831Z,8.13
2023-10-03T11:51:36.568Z,5.88
2023-10-03T11:56:29.433Z,7.15
2023-10-03T11:58:55.906Z,7.65
2023-10-03T12:01:22.330Z,6.18
2023-10-03T12:03:48.970Z,7.40
2023-10-03T12:08:41.715Z,6.82
2023-10-03T12:11:08.281Z,6.68
2023-10-03T12:13:34.612Z,6.25
2023-10-03T12:16:00.974Z,5.60
2023-10-03T12:18:27.602Z,8.32
2023-10-03T12:20:54.939Z,6.50
2023-10-03T12:23:21.375Z,7.53
2023-10-03T12:25:47.721Z,8.85
2023-10-03T12:28:14.132Z,8.82
2023-10-03T12:30:40.578Z,7.38
2023-10-03T12:33:07.034Z,6.72
2023-10-03T12:35:33.569Z,7.25
2023-10-03T12:38:00.214Z,9.65
2023-10-03T12:40:26.610Z,15.23
2023-10-03T12:42:53.177Z,7.45
2023-10-03T12:45:21.267Z,11.10
2023-10-03T12:47:50.287Z,6.45
2023-10-03T12:50:20.889Z,10.35
2023-10-03T12:52:47.321Z,6.25
2023-10-03T12:55:13.721Z,6.72
2023-10-03T12:57:40.143Z,10.32
2023-10-03T13:00:07.335Z,8.32
2023-10-03T13:02:34.295Z,11.65
2023-10-03T13:05:00.838Z,7.18
2023-10-03T13:07:27.231Z,9.07
2023-10-03T13:09:53.626Z,7.85
2023-10-03T13:12:20.090Z,9.80
2023-10-03T13:14:46.468Z,6.85
2023-10-03T13:17:12.797Z,7.32
2023-10-03T13:19:39.167Z,6.03
2023-10-03T13:22:05.691Z,8.20
2023-10-03T13:24:32.146Z,9.48
2023-10-03T13:26:58.590Z,9.77
2023-10-03T13:29:25.130Z,7.18
2023-10-03T13:31:51.516Z,8.52
2023-10-03T13:34:17.977Z,6.00
2023-10-03T13:36:44.468Z,8.05
2023-10-03T13:39:11.176Z,7.43
2023-10-03T13:41:37.798Z,8.68
2023-10-03T13:44:04.793Z,7.88
2023-10-03T13:46:34.497Z,7.30
2023-10-03T13:49:01.073Z,8.25
2023-10-03T13:51:28.011Z,6.40
2023-10-03T13:56:20.796Z,6.88
2023-10-03T13:58:47.123Z,8.50
2023-10-03T14:01:14.116Z,7.90
2023-10-03T14:03:41.856Z,7.63
2023-10-03T14:06:10.681Z,7.53
2023-10-03T14:08:37.254Z,7.40
2023-10-03T14:11:03.645Z,8.23
2023-10-03T14:13:30.006Z,8.32
2023-10-03T14:15:56.419Z,7.47
2023-10-03T14:18:22.891Z,6.88
2023-10-03T14:20:49.317Z,9.52
2023-10-03T14:23:15.839Z,9.23
2023-10-03T14:25:42.286Z,9.60
2023-10-03T14:28:08.880Z,7.57
2023-10-03T14:30:35.369Z,9.70
2023-10-03T14:33:01.814Z,10.05
2023-10-03T14:35:28.331Z,7.95
2023-10-03T14:37:54.774Z,9.70
2023-10-03T14:40:21.307Z,8.40
2023-10-03T14:42:47.714Z,10.00
2023-10-03T14:45:14.456Z,9.23
2023-10-03T14:50:08.375Z,7.95
2023-10-03T14:52:35.438Z,9.35
2023-10-03T14:55:02.064Z,7.85
2023-10-03T14:57:28.456Z,8.55
2023-10-03T14:59:54.808Z,8.13
2023-10-03T15:02:21.303Z,9.25
2023-10-03T15:04:47.679Z,9.43
2023-10-03T15:07:17.200Z,11.02
2023-10-03T15:09:44.050Z,9.30
2023-10-03T15:14:36.720Z,8.05
2023-10-03T15:17:03.077Z,9.57
2023-10-03T15:19:29.765Z,9.63
2023-10-03T15:21:57.315Z,11.50
2023-10-03T15:24:23.831Z,8.68
2023-10-03T15:26:50.215Z,9.80
2023-10-03T15:31:43.632Z,10.40
2023-10-03T15:34:10.052Z,8.73
2023-10-03T15:36:36.423Z,9.32
2023-10-03T15:39:06.728Z,9.52
2023-10-03T15:41:33.100Z,7.70
2023-10-03T15:43:59.456Z,7.82
2023-10-03T15:46:26.046Z,6.75
2023-10-03T15:48:52.436Z,6.82
2023-10-03T15:51:18.844Z,6.82
2023-10-03T15:53:46.953Z,6.18
2023-10-03T15:56:15.244Z,6.88
2023-10-03T15:58:41.996Z,8.27
2023-10-03T16:01:13.223Z,7.40
2023-10-03T16:03:39.756Z,6.88
2023-10-03T16:06:06.385Z,7.20
2023-10-03T16:08:32.932Z,8.15
2023-10-03T16:10:59.300Z,6.80
2023-10-03T16:13:25.655Z,5.88
2023-10-03T16:15:52.150Z,12.20
2023-10-03T16:18:18.757Z,7.22
2023-10-03T16:20:45.420Z,6.30
2023-10-03T16:23:11.976Z,5.70
2023-10-03T16:25:38.549Z,7.28
2023-10-03T16:28:05.979Z,8.48
2023-10-03T16:30:33.287Z,10.15
2023-10-03T16:33:00.310Z,7.53
2023-10-03T16:35:26.763Z,6.20
2023-10-03T16:37:53.236Z,7.80
2023-10-03T16:40:21.204Z,7.65
2023-10-03T16:42:47.693Z,6.95
2023-10-03T16:45:17.691Z,4.88
2023-10-03T16:47:45.250Z,6.68
2023-10-03T16:50:11.953Z,4.15
2023-10-03T16:52:39.709Z,4.95
2023-10-03T16:55:06.474Z,3.10
2023-10-03T16:57:33.664Z,2.95
2023-10-03T17:02:26.766Z,3.88
2023-10-03T17:04:53.123Z,3.17
2023-10-03T17:07:19.474Z,1.63
2023-10-03T17:09:45.964Z,3.00
2023-10-03T17:12:12.774Z,1.40
2023-10-03T17:14:39.184Z,1.02
2023-10-03T17:17:05.719Z,0.70
2023-10-03T17:19:32.134Z,2.00
2023-10-03T17:21:58.485Z,2.45
2023-10-03T17:24:24.860Z,1.02
2023-10-03T17:26:51.271Z,2.10
2023-10-03T17:29:17.704Z,1.58
2023-10-03T17:31:44.084Z,1.70
2023-10-03T17:34:11.259Z,0.93
2023-10-03T17:39:04.377Z,0.85
2023-10-03T17:41:30.880Z,1.08
2023-10-03T17:43:57.340Z,1.25
2023-10-03T17:46:23.759Z,0.80
2023-10-03T17:48:50.170Z,0.82
2023-10-03T17:51:16.630Z,0.95
2023-10-03T17:53:42.981Z,1.75
2023-10-03T17:56:10.327Z,1.02
2023-10-03T18:01:03.210Z,2.35
2023-10-03T18:03:29.642Z,1.15
2023-10-03T18:05:56.161Z,1.00
2023-10-03T18:08:22.612Z,2.15
2023-10-03T18:10:49.000Z,1.15
2023-10-03T18:13:15.386Z,1.17
2023-10-03T18:15:41.715Z,1.27
2023-10-03T18:18:08.153Z,1.13
2023-10-03T18:20:34.670Z,1.30
2023-10-03T18:23:01.160Z,1.00
2023-10-03T18:25:27.601Z,1.42
2023-10-03T18:27:54.015Z,2.15
2023-10-03T18:30:20.409Z,1.73
2023-10-03T18:32:46.897Z,1.45
2023-10-03T18:35:13.750Z,5.78
2023-10-03T18:37:40.607Z,1.55
2023-10-03T18:40:09.661Z,1.63
2023-10-03T18:42:39.045Z,2.53
2023-10-03T18:45:06.145Z,3.17
2023-10-03T18:47:32.667Z,1.05
2023-10-03T18:49:59.044Z,1.88
2023-10-03T18:52:25.423Z,1.23
2023-10-03T18:54:51.835Z,1.98
2023-10-03T18:57:18.280Z,1.83
2023-10-03T18:59:45.037Z,1.65
2023-10-03T19:02:11.509Z,2.13
2023-10-03T19:04:38.196Z,3.22
2023-10-03T19:07:04.722Z,1.48
2023-10-03T19:09:31.299Z,2.20
2023-10-03T19:11:57.798Z,2.10
2023-10-03T19:14:24.217Z,3.95
2023-10-03T19:16:50.687Z,2.05
2023-10-03T19:19:17.160Z,2.60
2023-10-03T19:21:43.596Z,3.38
2023-10-03T19:24:09.989Z,2.58
2023-10-03T19:26:36.628Z,2.17
2023-10-03T19:29:03.442Z,3.15
2023-10-03T19:31:30.168Z,3.15
2023-10-03T19:33:56.600Z,1.98
2023-10-03T19:36:23.136Z,2.22
2023-10-03T19:38:50.085Z,3.35
2023-10-03T19:41:16.810Z,2.00
2023-10-03T19:43:45.013Z,1.38
2023-10-03T19:46:21.708Z,1.65
2023-10-03T19:48:48.680Z,2.55
2023-10-03T19:51:15.267Z,3.08
2023-10-03T19:53:41.878Z,1.58
2023-10-03T19:56:08.317Z,3.95
2023-10-03T19:58:34.975Z,3.20
2023-10-03T20:01:02.293Z,2.22
2023-10-03T20:05:55.600Z,2.35
2023-10-03T20:08:22.111Z,2.42
2023-10-03T20:10:48.501Z,3.05
2023-10-03T20:13:14.974Z,2.05
2023-10-03T20:15:41.387Z,2.72
2023-10-03T20:18:07.957Z,2.38
2023-10-03T20:20:34.352Z,3.03
2023-10-03T20:23:01.711Z,2.35
2023-10-03T20:27:54.356Z,2.65
2023-10-03T20:30:20.723Z,2.42
2023-10-03T20:32:47.226Z,1.75
2023-10-03T20:35:13.752Z,1.52
2023-10-03T20:37:40.169Z,3.72
2023-10-03T20:40:08.136Z,2.05
2023-10-03T20:42:34.553Z,3.30
2023-10-03T20:45:00.892Z,2.20
2023-10-03T20:47:27.359Z,1.73
2023-10-03T20:49:53.775Z,3.13
2023-10-03T20:52:20.377Z,2.72
2023-10-03T20:54:47.246Z,3.63
2023-10-03T20:57:13.947Z,2.08
2023-10-03T20:59:40.373Z,2.78
2023-10-03T21:02:06.763Z,2.78
2023-10-03T21:04:33.299Z,2.47
2023-10-03T21:06:59.649Z,3.33
2023-10-03T21:09:26.046Z,2.78
2023-10-03T21:11:52.590Z,2.40
2023-10-03T21:14:18.967Z,3.03
2023-10-03T21:16:45.352Z,2.97
2023-10-03T21:19:12.023Z,2.28
2023-10-03T21:21:38.355Z,2.10
2023-10-03T21:24:04.977Z,3.67
2023-10-03T21:26:31.431Z,3.60
2023-10-03T21:28:57.945Z,3.65
2023-10-03T21:31:24.403Z,2.78
2023-10-03T21:33:50.981Z,3.13
2023-10-03T21:36:19.026Z,2.88
2023-10-03T21:38:48.207Z,3.80
2023-10-03T21:41:14.839Z,2.58
2023-10-03T21:43:41.346Z,3.47
2023-10-03T21:46:08.610Z,2.38
2023-10-03T21:48:35.661Z,4.57
2023-10-03T21:51:03.531Z,2.63
2023-10-03T21:53:31.414Z,2.95
2023-10-03T21:55:57.814Z,3.22
2023-10-03T21:58:24.709Z,3.65
2023-10-03T22:00:51.042Z,3.85
2023-10-03T22:03:17.647Z,2.95
2023-10-03T22:05:44.521Z,2.75
2023-10-03T22:08:11.409Z,3.78
2023-10-03T22:10:38.196Z,4.88
2023-10-03T22:13:05.046Z,3.40
2023-10-03T22:15:31.449Z,3.97
2023-10-03T22:17:58.012Z,2.80
2023-10-03T22:20:24.468Z,4.22
2023-10-03T22:22:50.805Z,3.67
2023-10-03T22:25:17.408Z,3.92
2023-10-03T22:27:43.743Z,3.65
2023-10-03T22:30:10.776Z,3.97
2023-10-03T22:32:37.226Z,3.15
2023-10-03T22:35:03.965Z,3.47
2023-10-03T22:37:30.314Z,3.67
2023-10-03T22:39:56.715Z,3.75
2023-10-03T22:42:23.259Z,3.20
2023-10-03T22:44:49.609Z,3.00
2023-10-03T22:47:16.077Z,3.65
2023-10-03T22:49:42.574Z,3.08
2023-10-03T22:52:08.911Z,4.22
2023-10-03T22:54:35.294Z,3.67
2023-10-03T22:57:01.896Z,3.88
2023-10-03T22:59:28.254Z,3.38
2023-10-03T23:01:54.619Z,3.00
2023-10-03T23:04:21.277Z,2.90
2023-10-03T23:06:47.650Z,3.03
2023-10-03T23:09:14.553Z,4.40
2023-10-03T23:11:42.234Z,3.42
2023-10-03T23:14:08.700Z,3.00
2023-10-03T23:16:35.077Z,3.65
2023-10-03T23:19:01.628Z,3.78
2023-10-03T23:21:28.221Z,3.13
2023-10-03T23:23:54.580Z,5.70
2023-10-03T23:26:20.906Z,5.05
2023-10-03T23:28:47.380Z,3.67
2023-10-03T23:31:13.744Z,3.65
2023-10-03T23:33:40.125Z,3.00
2023-10-03T23:36:06.774Z,3.22
2023-10-03T23:38:33.167Z,4.72
2023-10-03T23:40:59.658Z,3.83
2023-10-03T23:43:26.047Z,3.47
2023-10-03T23:45:52.641Z,2.70
2023-10-03T23:48:19.268Z,3.33
2023-10-03T23:50:45.669Z,3.47
2023-10-03T23:53:12.013Z,2.53
2023-10-03T23:55:38.533Z,4.25
2023-10-03T23:58:05.002Z,3.38
